sensor_id;sensor_type;location;lat;lon;timestamp;P1;durP1;ratioP1;P2;durP2;ratioP2
78824;SDS011;68176;45.554;10.220;2023-11-18T00:35:07;4.10;;;2.10;;
78824;SDS011;68176;45.554;10.220;2023-11-18T00:37:35;3.80;;;2.10;;
78824;SDS011;68176;45.554;10.220;2023-11-18T00:40:01;4.45;;;2.85;;
78824;SDS011;68176;45.554;10.220;2023-11-18T00:42:31;5.47;;;2.28;;
78824;SDS011;68176;45.554;10.220;2023-11-18T00:45:01;4.20;;;2.33;;
78824;SDS011;68176;45.554;10.220;2023-11-18T00:47:31;4.75;;;3.50;;
78824;SDS011;68176;45.554;10.220;2023-11-18T00:50:01;6.35;;;2.28;;
78824;SDS011;68176;45.554;10.220;2023-11-18T00:55:01;3.95;;;2.22;;
78824;SDS011;68176;45.554;10.220;2023-11-18T00:57:31;4.45;;;2.53;;
78824;SDS011;68176;45.554;10.220;2023-11-18T01:00:01;4.68;;;2.70;;
78824;SDS011;68176;45.554;10.220;2023-11-18T01:02:31;5.07;;;2.97;;
78824;SDS011;68176;45.554;10.220;2023-11-18T01:05:01;5.10;;;2.95;;
78824;SDS011;68176;45.554;10.220;2023-11-18T01:07:31;5.63;;;2.90;;
78824;SDS011;68176;45.554;10.220;2023-11-18T01:10:01;3.70;;;1.95;;
78824;SDS011;68176;45.554;10.220;2023-11-18T01:12:31;7.68;;;2.22;;
78824;SDS011;68176;45.554;10.220;2023-11-18T01:15:02;4.38;;;2.10;;
78824;SDS011;68176;45.554;10.220;2023-11-18T01:17:31;5.97;;;2.72;;
78824;SDS011;68176;45.554;10.220;2023-11-18T01:20:02;4.40;;;2.30;;
78824;SDS011;68176;45.554;10.220;2023-11-18T01:22:34;2.45;;;1.30;;
78824;SDS011;68176;45.554;10.220;2023-11-18T01:25:02;4.05;;;2.33;;
78824;SDS011;68176;45.554;10.220;2023-11-18T01:27:32;4.45;;;2.47;;
78824;SDS011;68176;45.554;10.220;2023-11-18T01:30:01;4.18;;;2.08;;
78824;SDS011;68176;45.554;10.220;2023-11-18T01:32:32;4.07;;;1.98;;
78824;SDS011;68176;45.554;10.220;2023-11-18T01:35:02;4.25;;;1.90;;
78824;SDS011;68176;45.554;10.220;2023-11-18T01:37:32;4.63;;;2.42;;
78824;SDS011;68176;45.554;10.220;2023-11-18T01:40:01;4.07;;;2.40;;
78824;SDS011;68176;45.554;10.220;2023-11-18T01:42:32;4.35;;;1.83;;
78824;SDS011;68176;45.554;10.220;2023-11-18T01:45:02;3.53;;;1.80;;
78824;SDS011;68176;45.554;10.220;2023-11-18T01:47:33;1.70;;;1.20;;
78824;SDS011;68176;45.554;10.220;2023-11-18T01:50:02;4.57;;;2.25;;
78824;SDS011;68176;45.554;10.220;2023-11-18T01:52:32;7.18;;;1.83;;
78824;SDS011;68176;45.554;10.220;2023-11-18T01:55:02;4.28;;;2.60;;
78824;SDS011;68176;45.554;10.220;2023-11-18T01:57:35;2.90;;;2.10;;
78824;SDS011;68176;45.554;10.220;2023-11-18T02:00:02;3.75;;;2.00;;
78824;SDS011;68176;45.554;10.220;2023-11-18T02:02:32;3.20;;;1.95;;
78824;SDS011;68176;45.554;10.220;2023-11-18T02:05:02;4.90;;;2.20;;
78824;SDS011;68176;45.554;10.220;2023-11-18T02:07:32;3.15;;;2.08;;
78824;SDS011;68176;45.554;10.220;2023-11-18T02:10:03;4.65;;;2.25;;
78824;SDS011;68176;45.554;10.220;2023-11-18T02:15:15;2.93;;;1.77;;
78824;SDS011;68176;45.554;10.220;2023-11-18T02:17:42;4.70;;;2.10;;
78824;SDS011;68176;45.554;10.220;2023-11-18T02:20:10;2.90;;;1.55;;
78824;SDS011;68176;45.554;10.220;2023-11-18T02:22:44;2.90;;;1.10;;
78824;SDS011;68176;45.554;10.220;2023-11-18T02:25:16;4.90;;;1.85;;
78824;SDS011;68176;45.554;10.220;2023-11-18T02:27:43;3.50;;;2.40;;
78824;SDS011;68176;45.554;10.220;2023-11-18T02:30:09;3.30;;;2.67;;
78824;SDS011;68176;45.554;10.220;2023-11-18T02:32:42;4.13;;;1.92;;
78824;SDS011;68176;45.554;10.220;2023-11-18T02:35:29;3.45;;;1.45;;
78824;SDS011;68176;45.554;10.220;2023-11-18T02:37:57;4.13;;;2.25;;
78824;SDS011;68176;45.554;10.220;2023-11-18T02:40:39;3.50;;;1.90;;
78824;SDS011;68176;45.554;10.220;2023-11-18T02:43:08;2.85;;;1.77;;
78824;SDS011;68176;45.554;10.220;2023-11-18T02:45:35;2.55;;;0.80;;
78824;SDS011;68176;45.554;10.220;2023-11-18T02:48:03;2.70;;;1.73;;
78824;SDS011;68176;45.554;10.220;2023-11-18T02:50:32;3.70;;;1.77;;
78824;SDS011;68176;45.554;10.220;2023-11-18T02:53:02;3.03;;;1.80;;
78824;SDS011;68176;45.554;10.220;2023-11-18T02:58:02;3.35;;;2.15;;
78824;SDS011;68176;45.554;10.220;2023-11-18T03:00:33;3.67;;;2.00;;
78824;SDS011;68176;45.554;10.220;2023-11-18T03:03:02;3.78;;;1.90;;
78824;SDS011;68176;45.554;10.220;2023-11-18T03:05:32;4.20;;;2.22;;
78824;SDS011;68176;45.554;10.220;2023-11-18T03:08:03;3.20;;;1.98;;
78824;SDS011;68176;45.554;10.220;2023-11-18T03:10:32;4.30;;;2.55;;
78824;SDS011;68176;45.554;10.220;2023-11-18T03:13:02;3.65;;;1.80;;
78824;SDS011;68176;45.554;10.220;2023-11-18T03:15:32;4.07;;;2.17;;
78824;SDS011;68176;45.554;10.220;2023-11-18T03:18:03;3.92;;;2.05;;
78824;SDS011;68176;45.554;10.220;2023-11-18T03:20:33;4.93;;;1.80;;
78824;SDS011;68176;45.554;10.220;2023-11-18T03:23:03;3.55;;;2.03;;
78824;SDS011;68176;45.554;10.220;2023-11-18T03:25:33;4.82;;;2.33;;
78824;SDS011;68176;45.554;10.220;2023-11-18T03:28:03;3.28;;;1.80;;
78824;SDS011;68176;45.554;10.220;2023-11-18T03:30:33;5.45;;;2.70;;
78824;SDS011;68176;45.554;10.220;2023-11-18T03:33:03;3.92;;;2.38;;
78824;SDS011;68176;45.554;10.220;2023-11-18T03:35:32;3.90;;;2.45;;
78824;SDS011;68176;45.554;10.220;2023-11-18T03:38:03;4.00;;;1.75;;
78824;SDS011;68176;45.554;10.220;2023-11-18T03:40:33;3.20;;;2.08;;
78824;SDS011;68176;45.554;10.220;2023-11-18T03:43:02;3.22;;;1.88;;
78824;SDS011;68176;45.554;10.220;2023-11-18T03:45:33;3.30;;;1.80;;
78824;SDS011;68176;45.554;10.220;2023-11-18T03:48:03;3.83;;;2.20;;
78824;SDS011;68176;45.554;10.220;2023-11-18T03:50:33;2.95;;;1.50;;
78824;SDS011;68176;45.554;10.220;2023-11-18T03:53:03;3.20;;;1.88;;
78824;SDS011;68176;45.554;10.220;2023-11-18T03:55:33;3.75;;;2.42;;
78824;SDS011;68176;45.554;10.220;2023-11-18T04:00:33;3.75;;;2.28;;
78824;SDS011;68176;45.554;10.220;2023-11-18T04:03:03;3.75;;;1.60;;
78824;SDS011;68176;45.554;10.220;2023-11-18T04:05:33;3.03;;;1.50;;
78824;SDS011;68176;45.554;10.220;2023-11-18T04:08:03;3.30;;;1.88;;
78824;SDS011;68176;45.554;10.220;2023-11-18T04:10:33;3.63;;;1.63;;
78824;SDS011;68176;45.554;10.220;2023-11-18T04:15:33;3.40;;;1.67;;
78824;SDS011;68176;45.554;10.220;2023-11-18T04:18:03;4.13;;;1.30;;
78824;SDS011;68176;45.554;10.220;2023-11-18T04:20:33;3.83;;;1.95;;
78824;SDS011;68176;45.554;10.220;2023-11-18T04:23:03;3.80;;;1.85;;
78824;SDS011;68176;45.554;10.220;2023-11-18T04:25:33;2.72;;;1.35;;
78824;SDS011;68176;45.554;10.220;2023-11-18T04:28:03;3.22;;;1.42;;
78824;SDS011;68176;45.554;10.220;2023-11-18T04:30:33;2.50;;;1.48;;
78824;SDS011;68176;45.554;10.220;2023-11-18T04:33:03;2.92;;;1.48;;
78824;SDS011;68176;45.554;10.220;2023-11-18T04:35:33;3.95;;;1.65;;
78824;SDS011;68176;45.554;10.220;2023-11-18T04:38:03;3.00;;;1.77;;
78824;SDS011;68176;45.554;10.220;2023-11-18T04:40:33;4.10;;;1.92;;
78824;SDS011;68176;45.554;10.220;2023-11-18T04:43:03;3.47;;;2.20;;
78824;SDS011;68176;45.554;10.220;2023-11-18T04:45:33;2.85;;;1.38;;
78824;SDS011;68176;45.554;10.220;2023-11-18T04:48:03;2.97;;;1.30;;
78824;SDS011;68176;45.554;10.220;2023-11-18T04:50:33;4.28;;;2.35;;
78824;SDS011;68176;45.554;10.220;2023-11-18T04:53:03;2.88;;;1.60;;
78824;SDS011;68176;45.554;10.220;2023-11-18T04:55:36;3.35;;;1.63;;
78824;SDS011;68176;45.554;10.220;2023-11-18T04:58:03;2.40;;;1.33;;
78824;SDS011;68176;45.554;10.220;2023-11-18T05:00:33;4.28;;;1.70;;
78824;SDS011;68176;45.554;10.220;2023-11-18T05:03:03;4.35;;;2.47;;
78824;SDS011;68176;45.554;10.220;2023-11-18T05:05:33;3.72;;;2.03;;
78824;SDS011;68176;45.554;10.220;2023-11-18T05:08:06;3.13;;;1.70;;
78824;SDS011;68176;45.554;10.220;2023-11-18T05:10:33;2.43;;;1.47;;
78824;SDS011;68176;45.554;10.220;2023-11-18T05:13:03;4.35;;;1.80;;
78824;SDS011;68176;45.554;10.220;2023-11-18T05:15:33;2.80;;;1.45;;
78824;SDS011;68176;45.554;10.220;2023-11-18T05:18:03;3.05;;;2.08;;
78824;SDS011;68176;45.554;10.220;2023-11-18T05:20:33;3.28;;;1.77;;
78824;SDS011;68176;45.554;10.220;2023-11-18T05:25:33;2.72;;;1.52;;
78824;SDS011;68176;45.554;10.220;2023-11-18T05:28:03;3.28;;;1.35;;
78824;SDS011;68176;45.554;10.220;2023-11-18T05:30:34;3.10;;;1.77;;
78824;SDS011;68176;45.554;10.220;2023-11-18T05:33:04;3.35;;;1.88;;
78824;SDS011;68176;45.554;10.220;2023-11-18T05:35:33;2.60;;;1.27;;
78824;SDS011;68176;45.554;10.220;2023-11-18T05:38:03;2.40;;;1.42;;
78824;SDS011;68176;45.554;10.220;2023-11-18T05:40:33;2.97;;;1.73;;
78824;SDS011;68176;45.554;10.220;2023-11-18T05:43:03;4.63;;;1.85;;
78824;SDS011;68176;45.554;10.220;2023-11-18T05:45:40;2.63;;;1.50;;
78824;SDS011;68176;45.554;10.220;2023-11-18T05:48:26;3.45;;;1.70;;
78824;SDS011;68176;45.554;10.220;2023-11-18T05:50:51;1.80;;;0.70;;
78824;SDS011;68176;45.554;10.220;2023-11-18T05:53:20;2.60;;;1.50;;
78824;SDS011;68176;45.554;10.220;2023-11-18T05:58:20;2.80;;;1.55;;
78824;SDS011;68176;45.554;10.220;2023-11-18T06:03:20;3.20;;;1.60;;
78824;SDS011;68176;45.554;10.220;2023-11-18T06:08:20;2.58;;;1.63;;
78824;SDS011;68176;45.554;10.220;2023-11-18T06:10:50;4.20;;;1.65;;
78824;SDS011;68176;45.554;10.220;2023-11-18T06:13:21;0.80;;;0.50;;
78824;SDS011;68176;45.554;10.220;2023-11-18T06:15:50;2.47;;;1.27;;
78824;SDS011;68176;45.554;10.220;2023-11-18T06:18:20;2.45;;;1.42;;
78824;SDS011;68176;45.554;10.220;2023-11-18T06:20:50;3.60;;;1.58;;
78824;SDS011;68176;45.554;10.220;2023-11-18T06:23:20;4.75;;;3.22;;
78824;SDS011;68176;45.554;10.220;2023-11-18T06:25:50;3.80;;;1.77;;
78824;SDS011;68176;45.554;10.220;2023-11-18T06:28:20;3.63;;;1.27;;
78824;SDS011;68176;45.554;10.220;2023-11-18T06:30:50;2.13;;;1.02;;
78824;SDS011;68176;45.554;10.220;2023-11-18T06:33:20;2.50;;;1.23;;
78824;SDS011;68176;45.554;10.220;2023-11-18T06:35:50;2.25;;;1.13;;
78824;SDS011;68176;45.554;10.220;2023-11-18T06:38:20;2.40;;;1.40;;
78824;SDS011;68176;45.554;10.220;2023-11-18T06:40:50;2.75;;;1.20;;
78824;SDS011;68176;45.554;10.220;2023-11-18T06:43:20;2.33;;;1.40;;
78824;SDS011;68176;45.554;10.220;2023-11-18T06:45:50;2.78;;;1.75;;
78824;SDS011;68176;45.554;10.220;2023-11-18T06:48:20;3.22;;;1.63;;
78824;SDS011;68176;45.554;10.220;2023-11-18T06:50:50;2.70;;;1.58;;
78824;SDS011;68176;45.554;10.220;2023-11-18T06:53:20;3.28;;;1.42;;
78824;SDS011;68176;45.554;10.220;2023-11-18T06:55:50;2.53;;;1.05;;
78824;SDS011;68176;45.554;10.220;2023-11-18T06:58:20;2.67;;;1.73;;
78824;SDS011;68176;45.554;10.220;2023-11-18T07:00:50;2.33;;;1.15;;
78824;SDS011;68176;45.554;10.220;2023-11-18T07:03:20;3.45;;;1.67;;
78824;SDS011;68176;45.554;10.220;2023-11-18T07:05:50;2.65;;;1.45;;
78824;SDS011;68176;45.554;10.220;2023-11-18T07:08:20;2.28;;;1.20;;
78824;SDS011;68176;45.554;10.220;2023-11-18T07:10:50;2.53;;;1.35;;
78824;SDS011;68176;45.554;10.220;2023-11-18T07:13:20;2.17;;;1.27;;
78824;SDS011;68176;45.554;10.220;2023-11-18T07:15:50;2.33;;;1.25;;
78824;SDS011;68176;45.554;10.220;2023-11-18T07:18:20;2.33;;;1.33;;
78824;SDS011;68176;45.554;10.220;2023-11-18T07:20:50;2.38;;;1.23;;
78824;SDS011;68176;45.554;10.220;2023-11-18T07:23:20;1.73;;;1.02;;
78824;SDS011;68176;45.554;10.220;2023-11-18T07:25:50;2.53;;;0.98;;
78824;SDS011;68176;45.554;10.220;2023-11-18T07:28:20;2.00;;;1.10;;
78824;SDS011;68176;45.554;10.220;2023-11-18T07:30:50;2.00;;;1.27;;
78824;SDS011;68176;45.554;10.220;2023-11-18T07:33:20;2.28;;;1.23;;
78824;SDS011;68176;45.554;10.220;2023-11-18T07:35:50;3.80;;;1.88;;
78824;SDS011;68176;45.554;10.220;2023-11-18T07:38:20;2.42;;;1.65;;
78824;SDS011;68176;45.554;10.220;2023-11-18T07:40:50;2.25;;;1.02;;
78824;SDS011;68176;45.554;10.220;2023-11-18T07:43:21;2.13;;;1.42;;
78824;SDS011;68176;45.554;10.220;2023-11-18T07:45:50;3.03;;;1.38;;
78824;SDS011;68176;45.554;10.220;2023-11-18T07:48:20;1.92;;;1.25;;
78824;SDS011;68176;45.554;10.220;2023-11-18T07:50:50;2.70;;;1.55;;
78824;SDS011;68176;45.554;10.220;2023-11-18T07:53:20;2.97;;;1.67;;
78824;SDS011;68176;45.554;10.220;2023-11-18T07:58:20;2.83;;;1.15;;
78824;SDS011;68176;45.554;10.220;2023-11-18T08:00:50;2.97;;;2.08;;
78824;SDS011;68176;45.554;10.220;2023-11-18T08:03:20;3.90;;;1.83;;
78824;SDS011;68176;45.554;10.220;2023-11-18T08:05:50;2.30;;;1.50;;
78824;SDS011;68176;45.554;10.220;2023-11-18T08:08:20;4.47;;;1.58;;
78824;SDS011;68176;45.554;10.220;2023-11-18T08:10:50;3.05;;;1.70;;
78824;SDS011;68176;45.554;10.220;2023-11-18T08:15:50;4.85;;;2.13;;
78824;SDS011;68176;45.554;10.220;2023-11-18T08:18:20;5.18;;;2.28;;
78824;SDS011;68176;45.554;10.220;2023-11-18T08:20:51;4.10;;;1.98;;
78824;SDS011;68176;45.554;10.220;2023-11-18T08:23:20;5.72;;;2.17;;
78824;SDS011;68176;45.554;10.220;2023-11-18T08:25:50;5.15;;;1.88;;
78824;SDS011;68176;45.554;10.220;2023-11-18T08:28:21;3.03;;;1.65;;
78824;SDS011;68176;45.554;10.220;2023-11-18T08:30:50;4.95;;;2.05;;
78824;SDS011;68176;45.554;10.220;2023-11-18T08:33:20;3.75;;;2.70;;
78824;SDS011;68176;45.554;10.220;2023-11-18T08:35:51;2.85;;;1.58;;
78824;SDS011;68176;45.554;10.220;2023-11-18T08:40:51;5.97;;;2.08;;
78824;SDS011;68176;45.554;10.220;2023-11-18T08:43:21;7.30;;;2.22;;
78824;SDS011;68176;45.554;10.220;2023-11-18T08:45:51;4.28;;;1.60;;
78824;SDS011;68176;45.554;10.220;2023-11-18T08:48:21;6.35;;;1.85;;
78824;SDS011;68176;45.554;10.220;2023-11-18T08:50:51;3.70;;;1.63;;
78824;SDS011;68176;45.554;10.220;2023-11-18T08:53:21;5.95;;;1.48;;
78824;SDS011;68176;45.554;10.220;2023-11-18T08:55:51;4.33;;;1.57;;
78824;SDS011;68176;45.554;10.220;2023-11-18T08:58:21;3.75;;;1.20;;
78824;SDS011;68176;45.554;10.220;2023-11-18T09:00:58;0.40;;;0.10;;
78824;SDS011;68176;45.554;10.220;2023-11-18T09:03:31;2.60;;;0.95;;
78824;SDS011;68176;45.554;10.220;2023-11-18T09:06:03;2.50;;;1.05;;
78824;SDS011;68176;45.554;10.220;2023-11-18T09:08:34;3.90;;;1.40;;
78824;SDS011;68176;45.554;10.220;2023-11-18T09:11:01;1.53;;;1.17;;
78824;SDS011;68176;45.554;10.220;2023-11-18T09:13:30;2.80;;;1.43;;
78824;SDS011;68176;45.554;10.220;2023-11-18T09:16:00;0.80;;;0.60;;
78824;SDS011;68176;45.554;10.220;2023-11-18T09:18:29;2.95;;;1.75;;
78824;SDS011;68176;45.554;10.220;2023-11-18T09:20:57;1.00;;;0.55;;
78824;SDS011;68176;45.554;10.220;2023-11-18T09:23:25;3.83;;;1.60;;
78824;SDS011;68176;45.554;10.220;2023-11-18T09:25:55;2.30;;;1.40;;
78824;SDS011;68176;45.554;10.220;2023-11-18T09:28:24;8.10;;;1.70;;
78824;SDS011;68176;45.554;10.220;2023-11-18T09:30:55;11.05;;;1.17;;
78824;SDS011;68176;45.554;10.220;2023-11-18T09:33:25;5.03;;;1.08;;
78824;SDS011;68176;45.554;10.220;2023-11-18T09:35:55;3.15;;;1.25;;
78824;SDS011;68176;45.554;10.220;2023-11-18T09:38:28;2.28;;;1.40;;
78824;SDS011;68176;45.554;10.220;2023-11-18T09:40:58;8.87;;;1.20;;
78824;SDS011;68176;45.554;10.220;2023-11-18T09:43:28;2.45;;;1.15;;
78824;SDS011;68176;45.554;10.220;2023-11-18T09:46:13;5.30;;;1.57;;
78824;SDS011;68176;45.554;10.220;2023-11-18T09:48:49;4.20;;;1.20;;
78824;SDS011;68176;45.554;10.220;2023-11-18T09:51:25;6.40;;;0.95;;
78824;SDS011;68176;45.554;10.220;2023-11-18T09:53:56;11.20;;;2.37;;
78824;SDS011;68176;45.554;10.220;2023-11-18T09:56:33;7.78;;;2.28;;
78824;SDS011;68176;45.554;10.220;2023-11-18T09:59:16;2.03;;;0.67;;
78824;SDS011;68176;45.554;10.220;2023-11-18T10:01:53;3.22;;;1.42;;
78824;SDS011;68176;45.554;10.220;2023-11-18T10:04:23;2.83;;;1.00;;
78824;SDS011;68176;45.554;10.220;2023-11-18T10:06:52;3.77;;;0.83;;
78824;SDS011;68176;45.554;10.220;2023-11-18T14:17:22;4.03;;;1.63;;
78824;SDS011;68176;45.554;10.220;2023-11-18T14:19:48;2.00;;;1.80;;
78824;SDS011;68176;45.554;10.220;2023-11-18T14:22:16;7.60;;;2.25;;
78824;SDS011;68176;45.554;10.220;2023-11-18T14:24:46;3.33;;;1.90;;
78824;SDS011;68176;45.554;10.220;2023-11-18T14:27:16;3.50;;;2.03;;
78824;SDS011;68176;45.554;10.220;2023-11-18T14:29:46;5.20;;;2.17;;
78824;SDS011;68176;45.554;10.220;2023-11-18T14:32:16;5.88;;;2.33;;
78824;SDS011;68176;45.554;10.220;2023-11-18T14:34:46;11.52;;;2.00;;
78824;SDS011;68176;45.554;10.220;2023-11-18T14:37:16;3.55;;;1.88;;
78824;SDS011;68176;45.554;10.220;2023-11-18T14:39:46;4.63;;;1.92;;
78824;SDS011;68176;45.554;10.220;2023-11-18T14:42:16;3.22;;;1.85;;
78824;SDS011;68176;45.554;10.220;2023-11-18T14:47:16;5.38;;;1.90;;
78824;SDS011;68176;45.554;10.220;2023-11-18T14:49:47;3.83;;;1.92;;
78824;SDS011;68176;45.554;10.220;2023-11-18T14:57:16;5.22;;;1.60;;
78824;SDS011;68176;45.554;10.220;2023-11-18T14:59:47;4.22;;;0.85;;
78824;SDS011;68176;45.554;10.220;2023-11-18T15:02:17;4.90;;;1.83;;
78824;SDS011;68176;45.554;10.220;2023-11-18T15:04:46;4.13;;;1.50;;
78824;SDS011;68176;45.554;10.220;2023-11-18T15:07:17;3.50;;;1.67;;
78824;SDS011;68176;45.554;10.220;2023-11-18T15:09:46;3.30;;;1.23;;
78824;SDS011;68176;45.554;10.220;2023-11-18T15:12:17;1.88;;;1.10;;
78824;SDS011;68176;45.554;10.220;2023-11-18T15:14:48;2.95;;;1.65;;
78824;SDS011;68176;45.554;10.220;2023-11-18T15:17:16;4.30;;;1.20;;
78824;SDS011;68176;45.554;10.220;2023-11-18T15:22:18;3.28;;;1.65;;
78824;SDS011;68176;45.554;10.220;2023-11-18T15:24:47;3.38;;;1.38;;
78824;SDS011;68176;45.554;10.220;2023-11-18T15:27:17;5.28;;;1.33;;
78824;SDS011;68176;45.554;10.220;2023-11-18T15:29:47;3.00;;;1.00;;
78824;SDS011;68176;45.554;10.220;2023-11-18T15:32:17;1.77;;;0.70;;
78824;SDS011;68176;45.554;10.220;2023-11-18T15:34:47;3.08;;;1.20;;
78824;SDS011;68176;45.554;10.220;2023-11-18T15:37:17;4.50;;;1.33;;
78824;SDS011;68176;45.554;10.220;2023-11-18T15:39:47;3.05;;;1.10;;
78824;SDS011;68176;45.554;10.220;2023-11-18T15:42:20;5.78;;;1.90;;
78824;SDS011;68176;45.554;10.220;2023-11-18T15:44:47;9.10;;;1.08;;
78824;SDS011;68176;45.554;10.220;2023-11-18T15:47:17;4.00;;;1.02;;
78824;SDS011;68176;45.554;10.220;2023-11-18T15:49:47;2.47;;;0.98;;
78824;SDS011;68176;45.554;10.220;2023-11-18T15:54:47;3.97;;;0.90;;
78824;SDS011;68176;45.554;10.220;2023-11-18T15:57:17;2.60;;;0.65;;
78824;SDS011;68176;45.554;10.220;2023-11-18T15:59:47;5.68;;;1.13;;
78824;SDS011;68176;45.554;10.220;2023-11-18T16:02:17;3.22;;;1.02;;
78824;SDS011;68176;45.554;10.220;2023-11-18T16:04:47;3.45;;;0.95;;
78824;SDS011;68176;45.554;10.220;2023-11-18T16:07:17;3.83;;;0.73;;
78824;SDS011;68176;45.554;10.220;2023-11-18T16:09:47;5.15;;;1.02;;
78824;SDS011;68176;45.554;10.220;2023-11-18T16:12:17;1.83;;;0.98;;
78824;SDS011;68176;45.554;10.220;2023-11-18T16:14:47;1.48;;;0.63;;
78824;SDS011;68176;45.554;10.220;2023-11-18T16:17:17;3.35;;;0.70;;
78824;SDS011;68176;45.554;10.220;2023-11-18T16:19:47;3.15;;;1.13;;
78824;SDS011;68176;45.554;10.220;2023-11-18T16:22:17;3.30;;;0.93;;
78824;SDS011;68176;45.554;10.220;2023-11-18T16:24:47;7.47;;;1.13;;
78824;SDS011;68176;45.554;10.220;2023-11-18T16:27:17;3.13;;;0.77;;
78824;SDS011;68176;45.554;10.220;2023-11-18T16:29:47;3.80;;;1.10;;
78824;SDS011;68176;45.554;10.220;2023-11-18T16:32:17;2.15;;;0.93;;
78824;SDS011;68176;45.554;10.220;2023-11-18T16:34:47;2.75;;;0.95;;
78824;SDS011;68176;45.554;10.220;2023-11-18T16:37:17;2.38;;;1.10;;
78824;SDS011;68176;45.554;10.220;2023-11-18T16:39:47;4.78;;;1.33;;
78824;SDS011;68176;45.554;10.220;2023-11-18T16:42:17;1.48;;;0.73;;
78824;SDS011;68176;45.554;10.220;2023-11-18T16:44:47;3.03;;;0.95;;
78824;SDS011;68176;45.554;10.220;2023-11-18T16:47:18;3.40;;;1.17;;
78824;SDS011;68176;45.554;10.220;2023-11-18T16:49:47;3.05;;;0.90;;
78824;SDS011;68176;45.554;10.220;2023-11-18T16:52:17;1.65;;;0.73;;
78824;SDS011;68176;45.554;10.220;2023-11-18T16:54:47;2.22;;;1.05;;
78824;SDS011;68176;45.554;10.220;2023-11-18T16:57:17;2.50;;;0.70;;
78824;SDS011;68176;45.554;10.220;2023-11-18T17:02:17;1.90;;;0.95;;
78824;SDS011;68176;45.554;10.220;2023-11-18T17:04:48;2.35;;;1.10;;
78824;SDS011;68176;45.554;10.220;2023-11-18T17:07:17;2.40;;;1.10;;
78824;SDS011;68176;45.554;10.220;2023-11-18T17:09:47;7.05;;;3.92;;
78824;SDS011;68176;45.554;10.220;2023-11-18T17:17:17;5.65;;;3.97;;
78824;SDS011;68176;45.554;10.220;2023-11-18T17:19:54;9.90;;;5.32;;
78824;SDS011;68176;45.554;10.220;2023-11-18T17:22:19;2.30;;;1.90;;
78824;SDS011;68176;45.554;10.220;2023-11-18T17:24:47;8.32;;;3.75;;
78824;SDS011;68176;45.554;10.220;2023-11-18T17:27:17;5.75;;;3.03;;
78824;SDS011;68176;45.554;10.220;2023-11-18T17:29:47;5.57;;;3.92;;
78824;SDS011;68176;45.554;10.220;2023-11-18T17:34:47;10.63;;;3.42;;
78824;SDS011;68176;45.554;10.220;2023-11-18T17:37:17;6.20;;;3.28;;
78824;SDS011;68176;45.554;10.220;2023-11-18T17:39:47;5.65;;;3.45;;
78824;SDS011;68176;45.554;10.220;2023-11-18T17:42:17;5.38;;;3.47;;
78824;SDS011;68176;45.554;10.220;2023-11-18T17:44:47;7.32;;;3.03;;
78824;SDS011;68176;45.554;10.220;2023-11-18T17:47:17;6.55;;;3.92;;
78824;SDS011;68176;45.554;10.220;2023-11-18T17:49:50;8.35;;;3.33;;
78824;SDS011;68176;45.554;10.220;2023-11-18T17:52:17;7.35;;;2.95;;
78824;SDS011;68176;45.554;10.220;2023-11-18T17:54:47;7.22;;;3.17;;
78824;SDS011;68176;45.554;10.220;2023-11-18T17:59:47;7.22;;;2.92;;
78824;SDS011;68176;45.554;10.220;2023-11-18T18:02:18;6.22;;;3.92;;
78824;SDS011;68176;45.554;10.220;2023-11-18T18:04:47;6.07;;;2.85;;
78824;SDS011;68176;45.554;10.220;2023-11-18T18:09:47;8.35;;;2.92;;
78824;SDS011;68176;45.554;10.220;2023-11-18T18:12:17;4.47;;;2.90;;
78824;SDS011;68176;45.554;10.220;2023-11-18T18:14:48;6.25;;;3.30;;
78824;SDS011;68176;45.554;10.220;2023-11-18T18:17:17;4.97;;;3.08;;
78824;SDS011;68176;45.554;10.220;2023-11-18T18:19:47;4.47;;;2.60;;
78824;SDS011;68176;45.554;10.220;2023-11-18T18:24:47;4.22;;;2.50;;
78824;SDS011;68176;45.554;10.220;2023-11-18T18:27:18;6.63;;;3.33;;
78824;SDS011;68176;45.554;10.220;2023-11-18T18:29:48;5.28;;;3.35;;
78824;SDS011;68176;45.554;10.220;2023-11-18T18:32:18;5.75;;;2.67;;
78824;SDS011;68176;45.554;10.220;2023-11-18T18:34:48;3.88;;;2.60;;
78824;SDS011;68176;45.554;10.220;2023-11-18T18:37:25;4.82;;;2.30;;
78824;SDS011;68176;45.554;10.220;2023-11-18T18:39:51;3.70;;;2.20;;
78824;SDS011;68176;45.554;10.220;2023-11-18T18:42:19;4.55;;;2.83;;
78824;SDS011;68176;45.554;10.220;2023-11-18T18:44:49;5.35;;;3.38;;
78824;SDS011;68176;45.554;10.220;2023-11-18T18:47:19;5.53;;;3.03;;
78824;SDS011;68176;45.554;10.220;2023-11-18T18:49:49;4.10;;;2.80;;
78824;SDS011;68176;45.554;10.220;2023-11-18T18:52:19;5.32;;;2.60;;
78824;SDS011;68176;45.554;10.220;2023-11-18T18:54:49;6.22;;;3.15;;
78824;SDS011;68176;45.554;10.220;2023-11-18T18:57:19;9.25;;;3.05;;
78824;SDS011;68176;45.554;10.220;2023-11-18T18:59:49;5.22;;;3.17;;
78824;SDS011;68176;45.554;10.220;2023-11-18T19:02:19;4.28;;;2.45;;
78824;SDS011;68176;45.554;10.220;2023-11-18T19:04:49;4.45;;;3.03;;
78824;SDS011;68176;45.554;10.220;2023-11-18T19:07:19;7.20;;;2.78;;
78824;SDS011;68176;45.554;10.220;2023-11-18T19:09:49;5.05;;;2.55;;
78824;SDS011;68176;45.554;10.220;2023-11-18T19:12:19;4.72;;;2.75;;
78824;SDS011;68176;45.554;10.220;2023-11-18T19:14:49;4.45;;;2.38;;
78824;SDS011;68176;45.554;10.220;2023-11-18T19:17:19;4.05;;;2.85;;
78824;SDS011;68176;45.554;10.220;2023-11-18T19:19:49;4.30;;;2.53;;
78824;SDS011;68176;45.554;10.220;2023-11-18T19:22:19;6.05;;;3.15;;
78824;SDS011;68176;45.554;10.220;2023-11-18T19:24:49;6.40;;;3.15;;
78824;SDS011;68176;45.554;10.220;2023-11-18T19:27:19;3.72;;;2.30;;
78824;SDS011;68176;45.554;10.220;2023-11-18T19:29:49;4.55;;;3.00;;
78824;SDS011;68176;45.554;10.220;2023-11-18T19:32:19;5.05;;;3.08;;
78824;SDS011;68176;45.554;10.220;2023-11-18T19:34:49;3.35;;;2.25;;
78824;SDS011;68176;45.554;10.220;2023-11-18T19:37:19;5.05;;;2.65;;
78824;SDS011;68176;45.554;10.220;2023-11-18T19:39:49;4.68;;;3.03;;
78824;SDS011;68176;45.554;10.220;2023-11-18T19:42:20;4.43;;;2.78;;
78824;SDS011;68176;45.554;10.220;2023-11-18T19:44:49;4.30;;;2.65;;
78824;SDS011;68176;45.554;10.220;2023-11-18T19:47:19;5.45;;;2.55;;
78824;SDS011;68176;45.554;10.220;2023-11-18T19:49:52;8.15;;;3.58;;
78824;SDS011;68176;45.554;10.220;2023-11-18T19:52:19;5.03;;;2.97;;
78824;SDS011;68176;45.554;10.220;2023-11-18T19:57:19;4.60;;;2.63;;
78824;SDS011;68176;45.554;10.220;2023-11-18T19:59:49;4.63;;;2.65;;
78824;SDS011;68176;45.554;10.220;2023-11-18T20:02:19;4.45;;;3.03;;
78824;SDS011;68176;45.554;10.220;2023-11-18T20:04:49;3.78;;;2.58;;
78824;SDS011;68176;45.554;10.220;2023-11-18T20:07:21;4.65;;;3.03;;
78824;SDS011;68176;45.554;10.220;2023-11-18T20:09:49;5.05;;;2.75;;
78824;SDS011;68176;45.554;10.220;2023-11-18T20:12:19;4.50;;;2.10;;
78824;SDS011;68176;45.554;10.220;2023-11-18T20:14:49;3.42;;;2.45;;
78824;SDS011;68176;45.554;10.220;2023-11-18T20:17:19;4.53;;;2.75;;
78824;SDS011;68176;45.554;10.220;2023-11-18T20:19:49;3.50;;;2.33;;
78824;SDS011;68176;45.554;10.220;2023-11-18T20:22:19;3.95;;;2.67;;
78824;SDS011;68176;45.554;10.220;2023-11-18T20:24:49;3.92;;;2.55;;
78824;SDS011;68176;45.554;10.220;2023-11-18T20:29:49;5.93;;;3.08;;
78824;SDS011;68176;45.554;10.220;2023-11-18T20:32:19;4.93;;;2.78;;
78824;SDS011;68176;45.554;10.220;2023-11-18T20:37:19;5.78;;;3.65;;
78824;SDS011;68176;45.554;10.220;2023-11-18T20:42:19;5.53;;;2.85;;